sensor_id;sensor_type;location;lat;lon;timestamp;temperature;humidity
6662;DHT22;3367;48.714;8.994;2023-05-13T00:00:05;10.10;1.00
6662;DHT22;3367;48.714;8.994;2023-05-13T00:02:32;10.10;1.00
6662;DHT22;3367;48.714;8.994;2023-05-13T00:04:58;10.10;1.00
6662;DHT22;3367;48.714;8.994;2023-05-13T00:07:25;10.10;1.00
6662;DHT22;3367;48.714;8.994;2023-05-13T00:09:52;10.10;1.00
6662;DHT22;3367;48.714;8.994;2023-05-13T00:12:19;10.10;1.00
6662;DHT22;3367;48.714;8.994;2023-05-13T00:14:46;10.10;1.00
6662;DHT22;3367;48.714;8.994;2023-05-13T00:17:14;10.20;1.00
6662;DHT22;3367;48.714;8.994;2023-05-13T00:19:41;10.20;1.00
6662;DHT22;3367;48.714;8.994;2023-05-13T00:22:07;10.20;1.00
6662;DHT22;3367;48.714;8.994;2023-05-13T00:24:34;10.20;1.00
6662;DHT22;3367;48.714;8.994;2023-05-13T00:27:01;10.30;1.00
6662;DHT22;3367;48.714;8.994;2023-05-13T00:29:27;10.30;1.00
6662;DHT22;3367;48.714;8.994;2023-05-13T00:31:55;10.40;1.00
6662;DHT22;3367;48.714;8.994;2023-05-13T00:34:23;10.30;1.00
6662;DHT22;3367;48.714;8.994;2023-05-13T00:36:50;10.40;1.00
6662;DHT22;3367;48.714;8.994;2023-05-13T00:39:17;10.40;1.00
6662;DHT22;3367;48.714;8.994;2023-05-13T00:41:44;10.40;1.00
6662;DHT22;3367;48.714;8.994;2023-05-13T00:44:10;10.50;1.00
6662;DHT22;3367;48.714;8.994;2023-05-13T00:46:37;10.40;1.00
6662;DHT22;3367;48.714;8.994;2023-05-13T00:49:04;10.50;99.90
6662;DHT22;3367;48.714;8.994;2023-05-13T00:51:32;10.50;99.90
6662;DHT22;3367;48.714;8.994;2023-05-13T00:53:59;10.50;99.90
6662;DHT22;3367;48.714;8.994;2023-05-13T00:56:26;10.50;99.90
6662;DHT22;3367;48.714;8.994;2023-05-13T00:58:52;10.50;64.50
6662;DHT22;3367;48.714;8.994;2023-05-13T01:01:24;10.50;99.90
6662;DHT22;3367;48.714;8.994;2023-05-13T01:03:57;10.50;26.40
6662;DHT22;3367;48.714;8.994;2023-05-13T01:06:30;10.60;75.90
6662;DHT22;3367;48.714;8.994;2023-05-13T01:09:09;10.60;1.00
6662;DHT22;3367;48.714;8.994;2023-05-13T01:11:39;10.60;1.00
6662;DHT22;3367;48.714;8.994;2023-05-13T01:14:11;10.60;1.00
6662;DHT22;3367;48.714;8.994;2023-05-13T01:16:41;10.40;1.00
6662;DHT22;3367;48.714;8.994;2023-05-13T01:19:22;10.60;1.00
6662;DHT22;3367;48.714;8.994;2023-05-13T01:21:52;10.60;1.00
6662;DHT22;3367;48.714;8.994;2023-05-13T01:24:19;10.60;1.00
6662;DHT22;3367;48.714;8.994;2023-05-13T01:26:46;10.60;1.00
6662;DHT22;3367;48.714;8.994;2023-05-13T01:29:13;10.60;26.20
6662;DHT22;3367;48.714;8.994;2023-05-13T01:31:41;10.50;67.00
6662;DHT22;3367;48.714;8.994;2023-05-13T01:34:08;10.50;99.90
6662;DHT22;3367;48.714;8.994;2023-05-13T01:36:36;10.40;99.90
6662;DHT22;3367;48.714;8.994;2023-05-13T01:39:04;10.40;1.00
6662;DHT22;3367;48.714;8.994;2023-05-13T01:41:31;10.40;1.00
6662;DHT22;3367;48.714;8.994;2023-05-13T01:43:58;10.40;1.00
6662;DHT22;3367;48.714;8.994;2023-05-13T01:46:25;10.30;1.00
6662;DHT22;3367;48.714;8.994;2023-05-13T01:48:52;10.30;1.00
6662;DHT22;3367;48.714;8.994;2023-05-13T01:51:19;10.40;1.00
6662;DHT22;3367;48.714;8.994;2023-05-13T01:53:45;10.20;1.00
6662;DHT22;3367;48.714;8.994;2023-05-13T01:56:13;10.20;1.00
6662;DHT22;3367;48.714;8.994;2023-05-13T01:58:40;10.20;1.00
6662;DHT22;3367;48.714;8.994;2023-05-13T02:01:07;10.10;1.00
6662;DHT22;3367;48.714;8.994;2023-05-13T02:03:34;10.00;1.00
6662;DHT22;3367;48.714;8.994;2023-05-13T02:06:00;10.00;1.00
6662;DHT22;3367;48.714;8.994;2023-05-13T02:08:27;9.90;57.30
6662;DHT22;3367;48.714;8.994;2023-05-13T02:10:55;9.80;93.60
6662;DHT22;3367;48.714;8.994;2023-05-13T02:13:24;9.80;99.90
6662;DHT22;3367;48.714;8.994;2023-05-13T02:15:51;9.80;99.90
6662;DHT22;3367;48.714;8.994;2023-05-13T02:18:17;9.70;99.90
6662;DHT22;3367;48.714;8.994;2023-05-13T02:20:44;9.70;99.90
6662;DHT22;3367;48.714;8.994;2023-05-13T02:23:11;9.70;1.00
6662;DHT22;3367;48.714;8.994;2023-05-13T02:25:39;9.80;99.90
6662;DHT22;3367;48.714;8.994;2023-05-13T02:28:06;9.80;99.90
6662;DHT22;3367;48.714;8.994;2023-05-13T02:30:34;9.70;99.90
6662;DHT22;3367;48.714;8.994;2023-05-13T02:33:01;9.70;99.90
6662;DHT22;3367;48.714;8.994;2023-05-13T02:35:28;9.70;99.90
6662;DHT22;3367;48.714;8.994;2023-05-13T02:37:55;9.70;99.90
6662;DHT22;3367;48.714;8.994;2023-05-13T02:40:22;9.70;99.90
6662;DHT22;3367;48.714;8.994;2023-05-13T02:42:48;9.70;99.90
6662;DHT22;3367;48.714;8.994;2023-05-13T02:45:15;9.70;99.90
6662;DHT22;3367;48.714;8.994;2023-05-13T02:47:43;9.60;99.90
6662;DHT22;3367;48.714;8.994;2023-05-13T02:50:10;9.60;99.90
6662;DHT22;3367;48.714;8.994;2023-05-13T02:52:38;9.60;99.90
6662;DHT22;3367;48.714;8.994;2023-05-13T02:55:06;9.60;99.90
6662;DHT22;3367;48.714;8.994;2023-05-13T02:57:33;9.50;99.90
6662;DHT22;3367;48.714;8.994;2023-05-13T03:00:01;9.60;99.90
6662;DHT22;3367;48.714;8.994;2023-05-13T03:02:29;9.60;99.90
6662;DHT22;3367;48.714;8.994;2023-05-13T03:04:57;9.60;99.90
6662;DHT22;3367;48.714;8.994;2023-05-13T03:07:23;9.60;99.90
6662;DHT22;3367;48.714;8.994;2023-05-13T03:09:50;9.60;1.00
6662;DHT22;3367;48.714;8.994;2023-05-13T03:12:17;9.60;1.00
6662;DHT22;3367;48.714;8.994;2023-05-13T03:14:44;9.60;1.00
6662;DHT22;3367;48.714;8.994;2023-05-13T03:17:10;9.60;1.00
6662;DHT22;3367;48.714;8.994;2023-05-13T03:19:38;9.60;1.00
6662;DHT22;3367;48.714;8.994;2023-05-13T03:22:06;9.50;1.00
6662;DHT22;3367;48.714;8.994;2023-05-13T03:24:32;9.60;1.00
6662;DHT22;3367;48.714;8.994;2023-05-13T03:26:59;9.60;1.00
6662;DHT22;3367;48.714;8.994;2023-05-13T03:29:26;9.50;1.00
6662;DHT22;3367;48.714;8.994;2023-05-13T03:31:53;9.50;1.00
6662;DHT22;3367;48.714;8.994;2023-05-13T03:34:19;9.50;1.00
6662;DHT22;3367;48.714;8.994;2023-05-13T03:36:46;9.60;1.00
6662;DHT22;3367;48.714;8.994;2023-05-13T03:39:14;9.60;1.00
6662;DHT22;3367;48.714;8.994;2023-05-13T03:41:41;9.50;1.00
6662;DHT22;3367;48.714;8.994;2023-05-13T03:44:08;9.50;1.00
6662;DHT22;3367;48.714;8.994;2023-05-13T03:46:35;9.50;1.00
6662;DHT22;3367;48.714;8.994;2023-05-13T03:49:02;9.60;1.00
6662;DHT22;3367;48.714;8.994;2023-05-13T03:51:28;9.50;1.00
6662;DHT22;3367;48.714;8.994;2023-05-13T03:53:55;9.60;1.00
6662;DHT22;3367;48.714;8.994;2023-05-13T03:56:23;9.60;99.90
6662;DHT22;3367;48.714;8.994;2023-05-13T03:58:50;9.60;99.90
6662;DHT22;3367;48.714;8.994;2023-05-13T04:01:16;9.60;99.90
6662;DHT22;3367;48.714;8.994;2023-05-13T04:03:43;9.60;92.40
6662;DHT22;3367;48.714;8.994;2023-05-13T04:06:10;9.60;1.00
6662;DHT22;3367;48.714;8.994;2023-05-13T04:08:38;9.60;1.00
6662;DHT22;3367;48.714;8.994;2023-05-13T04:11:05;9.60;1.00
6662;DHT22;3367;48.714;8.994;2023-05-13T04:13:33;9.60;1.00
6662;DHT22;3367;48.714;8.994;2023-05-13T04:16:01;9.60;1.00
6662;DHT22;3367;48.714;8.994;2023-05-13T04:18:28;9.60;1.00
6662;DHT22;3367;48.714;8.994;2023-05-13T04:20:55;9.60;1.00
6662;DHT22;3367;48.714;8.994;2023-05-13T04:23:21;9.60;1.00
6662;DHT22;3367;48.714;8.994;2023-05-13T04:25:49;9.60;1.00
6662;DHT22;3367;48.714;8.994;2023-05-13T04:28:16;9.50;1.00
6662;DHT22;3367;48.714;8.994;2023-05-13T04:30:44;9.60;1.00
6662;DHT22;3367;48.714;8.994;2023-05-13T04:33:11;9.60;1.00
6662;DHT22;3367;48.714;8.994;2023-05-13T04:35:38;9.60;1.00
6662;DHT22;3367;48.714;8.994;2023-05-13T04:38:05;9.50;99.90
6662;DHT22;3367;48.714;8.994;2023-05-13T04:40:31;9.50;99.90
6662;DHT22;3367;48.714;8.994;2023-05-13T04:42:58;9.40;1.00
6662;DHT22;3367;48.714;8.994;2023-05-13T04:45:25;9.50;1.00
6662;DHT22;3367;48.714;8.994;2023-05-13T04:47:53;9.50;1.00
6662;DHT22;3367;48.714;8.994;2023-05-13T04:50:19;9.50;1.00
6662;DHT22;3367;48.714;8.994;2023-05-13T04:52:46;9.50;1.00
6662;DHT22;3367;48.714;8.994;2023-05-13T04:55:13;9.50;1.00
6662;DHT22;3367;48.714;8.994;2023-05-13T04:57:40;9.40;1.00
6662;DHT22;3367;48.714;8.994;2023-05-13T05:00:07;9.50;1.00
6662;DHT22;3367;48.714;8.994;2023-05-13T05:02:35;9.50;1.00
6662;DHT22;3367;48.714;8.994;2023-05-13T05:05:03;9.40;99.90
6662;DHT22;3367;48.714;8.994;2023-05-13T05:07:30;9.50;1.00
6662;DHT22;3367;48.714;8.994;2023-05-13T05:09:58;9.50;1.00
6662;DHT22;3367;48.714;8.994;2023-05-13T05:12:27;9.50;1.00
6662;DHT22;3367;48.714;8.994;2023-05-13T05:14:55;9.50;99.90
6662;DHT22;3367;48.714;8.994;2023-05-13T05:17:22;9.50;99.90
6662;DHT22;3367;48.714;8.994;2023-05-13T05:19:48;9.50;99.90
6662;DHT22;3367;48.714;8.994;2023-05-13T05:22:16;9.50;99.90
6662;DHT22;3367;48.714;8.994;2023-05-13T05:24:43;9.60;99.90
6662;DHT22;3367;48.714;8.994;2023-05-13T05:27:12;9.60;99.90
6662;DHT22;3367;48.714;8.994;2023-05-13T05:29:39;9.60;1.00
6662;DHT22;3367;48.714;8.994;2023-05-13T05:32:06;9.60;37.30
6662;DHT22;3367;48.714;8.994;2023-05-13T05:34:33;9.60;1.00
6662;DHT22;3367;48.714;8.994;2023-05-13T05:37:00;9.60;1.00
6662;DHT22;3367;48.714;8.994;2023-05-13T05:39:28;9.60;1.00
6662;DHT22;3367;48.714;8.994;2023-05-13T05:41:54;9.70;1.00
6662;DHT22;3367;48.714;8.994;2023-05-13T05:44:21;9.80;1.00
6662;DHT22;3367;48.714;8.994;2023-05-13T05:46:48;9.70;1.00
6662;DHT22;3367;48.714;8.994;2023-05-13T05:49:17;9.80;1.00
6662;DHT22;3367;48.714;8.994;2023-05-13T05:51:43;9.90;1.00
6662;DHT22;3367;48.714;8.994;2023-05-13T05:54:10;10.00;1.00
6662;DHT22;3367;48.714;8.994;2023-05-13T05:56:38;9.90;99.90
6662;DHT22;3367;48.714;8.994;2023-05-13T05:59:05;10.00;99.90
6662;DHT22;3367;48.714;8.994;2023-05-13T06:01:31;10.00;99.90
6662;DHT22;3367;48.714;8.994;2023-05-13T06:04:01;10.10;99.90
6662;DHT22;3367;48.714;8.994;2023-05-13T06:06:28;10.10;99.90
6662;DHT22;3367;48.714;8.994;2023-05-13T06:08:55;10.10;42.60
6662;DHT22;3367;48.714;8.994;2023-05-13T06:11:21;10.10;98.80
6662;DHT22;3367;48.714;8.994;2023-05-13T06:13:49;10.10;99.90
6662;DHT22;3367;48.714;8.994;2023-05-13T06:16:16;10.20;99.90
6662;DHT22;3367;48.714;8.994;2023-05-13T06:18:43;10.20;99.90
6662;DHT22;3367;48.714;8.994;2023-05-13T06:21:09;10.10;99.90
6662;DHT22;3367;48.714;8.994;2023-05-13T06:23:36;10.10;99.90
6662;DHT22;3367;48.714;8.994;2023-05-13T06:26:03;10.10;99.90
6662;DHT22;3367;48.714;8.994;2023-05-13T06:28:29;10.20;99.90
6662;DHT22;3367;48.714;8.994;2023-05-13T06:30:57;10.30;99.90
6662;DHT22;3367;48.714;8.994;2023-05-13T06:33:24;10.40;99.90
6662;DHT22;3367;48.714;8.994;2023-05-13T06:35:51;10.30;99.90
6662;DHT22;3367;48.714;8.994;2023-05-13T06:38:18;10.40;95.10
6662;DHT22;3367;48.714;8.994;2023-05-13T06:40:45;10.30;2.00
6662;DHT22;3367;48.714;8.994;2023-05-13T06:43:12;10.30;99.90
6662;DHT22;3367;48.714;8.994;2023-05-13T06:45:40;10.40;84.10
6662;DHT22;3367;48.714;8.994;2023-05-13T06:48:08;10.30;99.90
6662;DHT22;3367;48.714;8.994;2023-05-13T06:50:35;10.40;27.60
6662;DHT22;3367;48.714;8.994;2023-05-13T06:53:02;10.40;62.50
6662;DHT22;3367;48.714;8.994;2023-05-13T06:55:29;10.50;53.00
6662;DHT22;3367;48.714;8.994;2023-05-13T06:57:55;10.60;1.00
6662;DHT22;3367;48.714;8.994;2023-05-13T07:00:22;10.70;1.00
6662;DHT22;3367;48.714;8.994;2023-05-13T07:02:49;10.70;1.00
6662;DHT22;3367;48.714;8.994;2023-05-13T07:05:17;10.80;1.00
6662;DHT22;3367;48.714;8.994;2023-05-13T07:07:44;11.00;1.00
6662;DHT22;3367;48.714;8.994;2023-05-13T07:10:10;11.20;1.00
6662;DHT22;3367;48.714;8.994;2023-05-13T07:12:37;11.30;99.90
6662;DHT22;3367;48.714;8.994;2023-05-13T07:15:05;11.30;99.90
6662;DHT22;3367;48.714;8.994;2023-05-13T07:17:32;11.30;99.90
6662;DHT22;3367;48.714;8.994;2023-05-13T07:19:59;11.40;99.90
6662;DHT22;3367;48.714;8.994;2023-05-13T07:22:27;11.30;99.90
6662;DHT22;3367;48.714;8.994;2023-05-13T07:24:54;11.40;99.90
6662;DHT22;3367;48.714;8.994;2023-05-13T07:27:21;11.50;99.90
6662;DHT22;3367;48.714;8.994;2023-05-13T07:29:48;11.30;99.90
6662;DHT22;3367;48.714;8.994;2023-05-13T07:32:14;11.50;99.90
6662;DHT22;3367;48.714;8.994;2023-05-13T07:34:41;11.60;99.90
6662;DHT22;3367;48.714;8.994;2023-05-13T07:37:08;11.60;99.90
6662;DHT22;3367;48.714;8.994;2023-05-13T07:39:36;11.70;99.90
6662;DHT22;3367;48.714;8.994;2023-05-13T07:42:03;11.80;99.90
6662;DHT22;3367;48.714;8.994;2023-05-13T07:44:29;11.90;1.00
6662;DHT22;3367;48.714;8.994;2023-05-13T07:46:56;11.70;1.00
6662;DHT22;3367;48.714;8.994;2023-05-13T07:49:23;11.70;1.00
6662;DHT22;3367;48.714;8.994;2023-05-13T07:51:50;11.90;1.00
6662;DHT22;3367;48.714;8.994;2023-05-13T07:54:16;11.70;1.00
6662;DHT22;3367;48.714;8.994;2023-05-13T07:56:45;11.80;1.00
6662;DHT22;3367;48.714;8.994;2023-05-13T07:59:12;11.90;1.00
6662;DHT22;3367;48.714;8.994;2023-05-13T08:01:39;12.10;1.00
6662;DHT22;3367;48.714;8.994;2023-05-13T08:04:05;12.10;1.00
6662;DHT22;3367;48.714;8.994;2023-05-13T08:06:32;12.10;1.00
6662;DHT22;3367;48.714;8.994;2023-05-13T08:08:59;12.20;1.00
6662;DHT22;3367;48.714;8.994;2023-05-13T08:11:26;12.10;1.00
6662;DHT22;3367;48.714;8.994;2023-05-13T08:13:54;12.30;1.00
6662;DHT22;3367;48.714;8.994;2023-05-13T08:16:21;12.50;1.00
6662;DHT22;3367;48.714;8.994;2023-05-13T08:18:47;12.60;1.00
6662;DHT22;3367;48.714;8.994;2023-05-13T08:21:14;12.30;1.00
6662;DHT22;3367;48.714;8.994;2023-05-13T08:23:41;12.20;1.00
6662;DHT22;3367;48.714;8.994;2023-05-13T08:26:07;12.20;49.20
6662;DHT22;3367;48.714;8.994;2023-05-13T08:28:34;12.30;1.00
6662;DHT22;3367;48.714;8.994;2023-05-13T08:31:02;12.30;1.00
6662;DHT22;3367;48.714;8.994;2023-05-13T08:33:29;12.40;1.00
6662;DHT22;3367;48.714;8.994;2023-05-13T08:35:56;12.30;1.00
6662;DHT22;3367;48.714;8.994;2023-05-13T08:38:23;12.20;1.00
6662;DHT22;3367;48.714;8.994;2023-05-13T08:40:50;12.30;1.00
6662;DHT22;3367;48.714;8.994;2023-05-13T08:43:18;12.40;1.00
6662;DHT22;3367;48.714;8.994;2023-05-13T08:45:46;12.60;1.00
6662;DHT22;3367;48.714;8.994;2023-05-13T08:48:15;12.80;1.00
6662;DHT22;3367;48.714;8.994;2023-05-13T08:50:43;12.80;1.00
6662;DHT22;3367;48.714;8.994;2023-05-13T08:53:10;12.60;1.00
6662;DHT22;3367;48.714;8.994;2023-05-13T08:55:37;12.80;1.00
6662;DHT22;3367;48.714;8.994;2023-05-13T08:58:04;12.80;1.00
6662;DHT22;3367;48.714;8.994;2023-05-13T09:00:31;12.80;1.00
6662;DHT22;3367;48.714;8.994;2023-05-13T09:02:58;13.10;1.00
6662;DHT22;3367;48.714;8.994;2023-05-13T09:05:27;13.20;1.00
6662;DHT22;3367;48.714;8.994;2023-05-13T09:07:54;13.10;1.00
6662;DHT22;3367;48.714;8.994;2023-05-13T09:10:20;13.00;1.00
6662;DHT22;3367;48.714;8.994;2023-05-13T09:12:49;13.00;1.00
6662;DHT22;3367;48.714;8.994;2023-05-13T09:15:17;12.90;1.00
6662;DHT22;3367;48.714;8.994;2023-05-13T09:17:46;12.90;1.00
6662;DHT22;3367;48.714;8.994;2023-05-13T09:20:15;12.80;1.00
6662;DHT22;3367;48.714;8.994;2023-05-13T09:22:47;12.90;1.00
6662;DHT22;3367;48.714;8.994;2023-05-13T09:25:16;12.70;1.00
6662;DHT22;3367;48.714;8.994;2023-05-13T09:27:46;12.70;1.00
6662;DHT22;3367;48.714;8.994;2023-05-13T09:30:13;12.80;1.00
6662;DHT22;3367;48.714;8.994;2023-05-13T09:32:40;12.90;1.00
6662;DHT22;3367;48.714;8.994;2023-05-13T09:35:08;13.00;1.00
6662;DHT22;3367;48.714;8.994;2023-05-13T09:37:35;12.90;1.00
6662;DHT22;3367;48.714;8.994;2023-05-13T09:40:05;12.90;1.00
6662;DHT22;3367;48.714;8.994;2023-05-13T09:42:32;12.80;1.00
6662;DHT22;3367;48.714;8.994;2023-05-13T09:45:03;12.90;1.00
6662;DHT22;3367;48.714;8.994;2023-05-13T09:47:31;12.90;1.00
6662;DHT22;3367;48.714;8.994;2023-05-13T09:50:01;12.80;1.00
6662;DHT22;3367;48.714;8.994;2023-05-13T09:52:29;12.90;1.00
6662;DHT22;3367;48.714;8.994;2023-05-13T09:54:56;13.10;1.00
6662;DHT22;3367;48.714;8.994;2023-05-13T09:57:26;13.00;1.00
6662;DHT22;3367;48.714;8.994;2023-05-13T09:59:56;12.80;1.00
6662;DHT22;3367;48.714;8.994;2023-05-13T10:02:23;13.00;1.00
6662;DHT22;3367;48.714;8.994;2023-05-13T10:04:51;13.00;1.00
6662;DHT22;3367;48.714;8.994;2023-05-13T10:07:19;13.00;1.00
6662;DHT22;3367;48.714;8.994;2023-05-13T10:09:51;13.00;1.00
6662;DHT22;3367;48.714;8.994;2023-05-13T10:12:20;13.00;1.00
6662;DHT22;3367;48.714;8.994;2023-05-13T10:14:49;13.10;1.00
6662;DHT22;3367;48.714;8.994;2023-05-13T10:17:18;13.10;1.00
6662;DHT22;3367;48.714;8.994;2023-05-13T10:19:47;13.20;1.00
6662;DHT22;3367;48.714;8.994;2023-05-13T10:22:14;13.20;1.00
6662;DHT22;3367;48.714;8.994;2023-05-13T10:24:41;13.30;99.90
6662;DHT22;3367;48.714;8.994;2023-05-13T10:27:10;13.50;1.00
6662;DHT22;3367;48.714;8.994;2023-05-13T10:29:37;13.70;99.90
6662;DHT22;3367;48.714;8.994;2023-05-13T10:32:07;13.60;99.90
6662;DHT22;3367;48.714;8.994;2023-05-13T10:34:34;13.70;99.90
6662;DHT22;3367;48.714;8.994;2023-05-13T10:37:19;13.60;99.90
6662;DHT22;3367;48.714;8.994;2023-05-13T10:40:15;13.70;99.90
6662;DHT22;3367;48.714;8.994;2023-05-13T10:42:50;13.70;99.90
6662;DHT22;3367;48.714;8.994;2023-05-13T10:45:19;13.70;99.90
6662;DHT22;3367;48.714;8.994;2023-05-13T10:47:53;13.50;22.60
6662;DHT22;3367;48.714;8.994;2023-05-13T10:50:24;13.70;21.10
6662;DHT22;3367;48.714;8.994;2023-05-13T10:52:54;13.80;13.60
6662;DHT22;3367;48.714;8.994;2023-05-13T10:55:22;13.80;15.50
6662;DHT22;3367;48.714;8.994;2023-05-13T10:58:07;13.70;19.10
6662;DHT22;3367;48.714;8.994;2023-05-13T11:00:35;13.70;20.60
6662;DHT22;3367;48.714;8.994;2023-05-13T11:03:25;13.70;20.50
6662;DHT22;3367;48.714;8.994;2023-05-13T11:05:58;13.70;20.10
6662;DHT22;3367;48.714;8.994;2023-05-13T11:08:38;13.70;21.90
6662;DHT22;3367;48.714;8.994;2023-05-13T11:11:24;13.60;19.40
6662;DHT22;3367;48.714;8.994;2023-05-13T11:13:52;13.50;33.10
6662;DHT22;3367;48.714;8.994;2023-05-13T11:16:20;13.60;71.60
6662;DHT22;3367;48.714;8.994;2023-05-13T11:18:49;13.80;48.70
6662;DHT22;3367;48.714;8.994;2023-05-13T11:21:16;13.70;38.20
6662;DHT22;3367;48.714;8.994;2023-05-13T11:23:51;13.60;38.40
6662;DHT22;3367;48.714;8.994;2023-05-13T11:26:18;13.60;60.60
6662;DHT22;3367;48.714;8.994;2023-05-13T11:28:56;13.70;79.00
6662;DHT22;3367;48.714;8.994;2023-05-13T11:31:25;13.70;90.90
6662;DHT22;3367;48.714;8.994;2023-05-13T11:34:10;13.90;99.90
6662;DHT22;3367;48.714;8.994;2023-05-13T11:36:38;14.30;99.90
6662;DHT22;3367;48.714;8.994;2023-05-13T11:39:10;14.30;96.90
6662;DHT22;3367;48.714;8.994;2023-05-13T11:41:40;14.30;95.60
6662;DHT22;3367;48.714;8.994;2023-05-13T11:44:07;14.40;56.90
6662;DHT22;3367;48.714;8.994;2023-05-13T11:46:34;14.50;63.90
6662;DHT22;3367;48.714;8.994;2023-05-13T11:49:01;14.50;55.70
6662;DHT22;3367;48.714;8.994;2023-05-13T11:51:30;14.20;73.40
6662;DHT22;3367;48.714;8.994;2023-05-13T11:54:00;14.20;57.80
6662;DHT22;3367;48.714;8.994;2023-05-13T11:56:27;13.80;68.20
6662;DHT22;3367;48.714;8.994;2023-05-13T11:58:54;13.60;90.20
6662;DHT22;3367;48.714;8.994;2023-05-13T12:01:20;13.40;99.90
6662;DHT22;3367;48.714;8.994;2023-05-13T12:03:47;13.40;99.90
6662;DHT22;3367;48.714;8.994;2023-05-13T12:06:14;13.40;99.90
6662;DHT22;3367;48.714;8.994;2023-05-13T12:08:45;13.40;99.90
6662;DHT22;3367;48.714;8.994;2023-05-13T12:11:12;13.40;99.90
6662;DHT22;3367;48.714;8.994;2023-05-13T12:13:40;13.20;99.90
6662;DHT22;3367;48.714;8.994;2023-05-13T12:16:07;13.10;99.90
6662;DHT22;3367;48.714;8.994;2023-05-13T12:18:36;13.20;99.90
6662;DHT22;3367;48.714;8.994;2023-05-13T12:21:13;13.20;99.90
6662;DHT22;3367;48.714;8.994;2023-05-13T12:23:40;13.20;99.90
6662;DHT22;3367;48.714;8.994;2023-05-13T12:26:08;13.20;99.90
6662;DHT22;3367;48.714;8.994;2023-05-13T12:28:35;13.40;99.90
6662;DHT22;3367;48.714;8.994;2023-05-13T12:31:03;13.60;99.90
6662;DHT22;3367;48.714;8.994;2023-05-13T12:33:31;13.70;99.90
6662;DHT22;3367;48.714;8.994;2023-05-13T12:36:16;13.80;99.90
6662;DHT22;3367;48.714;8.994;2023-05-13T12:38:55;14.00;99.90
6662;DHT22;3367;48.714;8.994;2023-05-13T12:41:24;14.30;93.40
6662;DHT22;3367;48.714;8.994;2023-05-13T12:43:56;14.30;70.90
6662;DHT22;3367;48.714;8.994;2023-05-13T12:46:23;14.20;64.30
6662;DHT22;3367;48.714;8.994;2023-05-13T12:48:53;14.10;47.30
6662;DHT22;3367;48.714;8.994;2023-05-13T12:51:20;13.80;55.70
6662;DHT22;3367;48.714;8.994;2023-05-13T12:53:47;13.90;90.00
6662;DHT22;3367;48.714;8.994;2023-05-13T12:56:13;14.20;87.50
6662;DHT22;3367;48.714;8.994;2023-05-13T12:58:41;14.10;68.00
6662;DHT22;3367;48.714;8.994;2023-05-13T13:01:08;14.10;51.70
6662;DHT22;3367;48.714;8.994;2023-05-13T13:03:35;13.90;56.80
6662;DHT22;3367;48.714;8.994;2023-05-13T13:06:02;13.70;64.40
6662;DHT22;3367;48.714;8.994;2023-05-13T13:08:28;13.80;79.00
6662;DHT22;3367;48.714;8.994;2023-05-13T13:10:57;13.90;65.80
6662;DHT22;3367;48.714;8.994;2023-05-13T13:13:24;14.00;56.30
6662;DHT22;3367;48.714;8.994;2023-05-13T13:15:52;14.10;47.20
6662;DHT22;3367;48.714;8.994;2023-05-13T13:18:18;14.20;47.90
6662;DHT22;3367;48.714;8.994;2023-05-13T13:20:45;14.40;36.70
6662;DHT22;3367;48.714;8.994;2023-05-13T13:23:12;14.20;29.40
6662;DHT22;3367;48.714;8.994;2023-05-13T13:25:38;14.30;22.00
6662;DHT22;3367;48.714;8.994;2023-05-13T13:28:05;14.20;27.80
6662;DHT22;3367;48.714;8.994;2023-05-13T13:30:32;14.20;32.70
6662;DHT22;3367;48.714;8.994;2023-05-13T13:33:00;14.20;29.30
6662;DHT22;3367;48.714;8.994;2023-05-13T13:35:27;14.10;31.60
6662;DHT22;3367;48.714;8.994;2023-05-13T13:37:53;14.30;41.00
6662;DHT22;3367;48.714;8.994;2023-05-13T13:40:20;14.50;34.20
6662;DHT22;3367;48.714;8.994;2023-05-13T13:42:47;14.40;22.60
6662;DHT22;3367;48.714;8.994;2023-05-13T13:45:14;14.50;28.00
6662;DHT22;3367;48.714;8.994;2023-05-13T13:47:41;14.70;28.50
6662;DHT22;3367;48.714;8.994;2023-05-13T13:50:10;14.70;9.80
6662;DHT22;3367;48.714;8.994;2023-05-13T13:52:37;14.80;15.30
6662;DHT22;3367;48.714;8.994;2023-05-13T13:55:04;14.90;4.10
6662;DHT22;3367;48.714;8.994;2023-05-13T13:57:31;15.10;1.00
6662;DHT22;3367;48.714;8.994;2023-05-13T13:59:58;15.00;1.00
6662;DHT22;3367;48.714;8.994;2023-05-13T14:02:25;15.00;1.00
6662;DHT22;3367;48.714;8.994;2023-05-13T14:04:51;14.80;1.00
6662;DHT22;3367;48.714;8.994;2023-05-13T14:07:19;14.60;1.00
6662;DHT22;3367;48.714;8.994;2023-05-13T14:09:46;14.50;1.90
6662;DHT22;3367;48.714;8.994;2023-05-13T14:12:14;14.30;8.50
6662;DHT22;3367;48.714;8.994;2023-05-13T14:14:40;14.20;16.30
6662;DHT22;3367;48.714;8.994;2023-05-13T14:17:07;14.20;18.20
6662;DHT22;3367;48.714;8.994;2023-05-13T14:19:34;14.30;26.20
6662;DHT22;3367;48.714;8.994;2023-05-13T14:22:00;14.50;19.10
6662;DHT22;3367;48.714;8.994;2023-05-13T14:24:28;14.50;24.10
6662;DHT22;3367;48.714;8.994;2023-05-13T14:26:55;14.60;18.10
6662;DHT22;3367;48.714;8.994;2023-05-13T14:29:22;14.70;19.10
6662;DHT22;3367;48.714;8.994;2023-05-13T14:31:48;14.90;15.40
6662;DHT22;3367;48.714;8.994;2023-05-13T14:34:15;14.80;13.70
6662;DHT22;3367;48.714;8.994;2023-05-13T14:36:42;14.80;14.20
6662;DHT22;3367;48.714;8.994;2023-05-13T14:39:08;14.90;13.00
6662;DHT22;3367;48.714;8.994;2023-05-13T14:41:37;14.80;14.40
6662;DHT22;3367;48.714;8.994;2023-05-13T14:44:05;14.70;23.70
6662;DHT22;3367;48.714;8.994;2023-05-13T14:46:32;14.60;39.50
6662;DHT22;3367;48.714;8.994;2023-05-13T14:49:01;14.60;42.80
6662;DHT22;3367;48.714;8.994;2023-05-13T14:51:28;14.60;50.10
6662;DHT22;3367;48.714;8.994;2023-05-13T14:53:54;14.70;43.10
6662;DHT22;3367;48.714;8.994;2023-05-13T14:56:21;14.50;55.30
6662;DHT22;3367;48.714;8.994;2023-05-13T14:58:50;14.60;65.60
6662;DHT22;3367;48.714;8.994;2023-05-13T15:01:16;14.80;51.90
6662;DHT22;3367;48.714;8.994;2023-05-13T15:03:43;14.90;44.20
6662;DHT22;3367;48.714;8.994;2023-05-13T15:06:10;14.90;39.10
6662;DHT22;3367;48.714;8.994;2023-05-13T15:08:37;14.90;39.80
6662;DHT22;3367;48.714;8.994;2023-05-13T15:11:04;14.90;45.40
6662;DHT22;3367;48.714;8.994;2023-05-13T15:13:31;14.70;31.60
6662;DHT22;3367;48.714;8.994;2023-05-13T15:16:01;14.80;35.60
6662;DHT22;3367;48.714;8.994;2023-05-13T15:18:27;14.70;31.20
6662;DHT22;3367;48.714;8.994;2023-05-13T15:20:54;14.80;31.80
6662;DHT22;3367;48.714;8.994;2023-05-13T15:23:21;14.80;34.60
6662;DHT22;3367;48.714;8.994;2023-05-13T15:25:48;14.80;25.40
6662;DHT22;3367;48.714;8.994;2023-05-13T15:28:14;14.70;28.10
6662;DHT22;3367;48.714;8.994;2023-05-13T15:30:41;14.70;24.30
6662;DHT22;3367;48.714;8.994;2023-05-13T15:33:09;14.80;27.20
6662;DHT22;3367;48.714;8.994;2023-05-13T15:35:37;14.70;22.60
6662;DHT22;3367;48.714;8.994;2023-05-13T15:38:04;14.70;20.30
6662;DHT22;3367;48.714;8.994;2023-05-13T15:40:31;14.70;26.10
6662;DHT22;3367;48.714;8.994;2023-05-13T15:42:58;14.60;21.10
6662;DHT22;3367;48.714;8.994;2023-05-13T15:45:24;14.60;28.90
6662;DHT22;3367;48.714;8.994;2023-05-13T15:47:51;14.60;25.00
6662;DHT22;3367;48.714;8.994;2023-05-13T15:50:19;14.60;33.00
6662;DHT22;3367;48.714;8.994;2023-05-13T15:52:46;14.70;38.40
6662;DHT22;3367;48.714;8.994;2023-05-13T15:55:13;14.70;27.90
6662;DHT22;3367;48.714;8.994;2023-05-13T15:57:40;14.70;27.20
6662;DHT22;3367;48.714;8.994;2023-05-13T16:00:07;14.60;28.40
6662;DHT22;3367;48.714;8.994;2023-05-13T16:02:34;14.70;33.40
6662;DHT22;3367;48.714;8.994;2023-05-13T16:05:04;14.70;36.30
6662;DHT22;3367;48.714;8.994;2023-05-13T16:07:32;14.70;40.30
6662;DHT22;3367;48.714;8.994;2023-05-13T16:09:59;14.60;29.30
6662;DHT22;3367;48.714;8.994;2023-05-13T16:12:26;14.60;41.00
6662;DHT22;3367;48.714;8.994;2023-05-13T16:14:52;14.70;50.30